sensor_id;sensor_type;location;lat;lon;timestamp;temperature;humidity
69938;DHT22;57248;47.320;15.998;2023-07-22T00:00:20;15.87;97.28
69938;DHT22;57248;47.320;15.998;2023-07-22T00:02:53;15.85;97.28
69938;DHT22;57248;47.320;15.998;2023-07-22T00:05:25;15.93;97.07
69938;DHT22;57248;47.320;15.998;2023-07-22T00:07:57;15.90;96.65
69938;DHT22;57248;47.320;15.998;2023-07-22T00:10:23;15.86;96.89
69938;DHT22;57248;47.320;15.998;2023-07-22T00:12:54;15.96;97.00
69938;DHT22;57248;47.320;15.998;2023-07-22T00:15:26;15.89;97.49
69938;DHT22;57248;47.320;15.998;2023-07-22T00:17:58;15.90;97.55
69938;DHT22;57248;47.320;15.998;2023-07-22T00:20:31;15.95;97.70
69938;DHT22;57248;47.320;15.998;2023-07-22T00:23:03;15.99;97.20
69938;DHT22;57248;47.320;15.998;2023-07-22T00:25:29;15.93;97.09
69938;DHT22;57248;47.320;15.998;2023-07-22T00:28:00;15.85;97.59
69938;DHT22;57248;47.320;15.998;2023-07-22T00:30:33;15.85;97.55
69938;DHT22;57248;47.320;15.998;2023-07-22T00:33:07;15.89;97.52
69938;DHT22;57248;47.320;15.998;2023-07-22T00:35:39;15.92;97.64
69938;DHT22;57248;47.320;15.998;2023-07-22T00:38:11;15.86;97.44
69938;DHT22;57248;47.320;15.998;2023-07-22T00:40:43;15.85;97.83
69938;DHT22;57248;47.320;15.998;2023-07-22T00:43:15;15.87;97.61
69938;DHT22;57248;47.320;15.998;2023-07-22T00:45:47;15.85;97.38
69938;DHT22;57248;47.320;15.998;2023-07-22T00:48:21;15.83;96.77
69938;DHT22;57248;47.320;15.998;2023-07-22T00:50:53;15.83;97.24
69938;DHT22;57248;47.320;15.998;2023-07-22T00:53:32;15.85;97.01
69938;DHT22;57248;47.320;15.998;2023-07-22T00:56:04;15.81;97.22
69938;DHT22;57248;47.320;15.998;2023-07-22T00:58:30;15.78;97.43
69938;DHT22;57248;47.320;15.998;2023-07-22T01:01:02;15.63;97.38
69938;DHT22;57248;47.320;15.998;2023-07-22T01:03:34;15.63;97.08
69938;DHT22;57248;47.320;15.998;2023-07-22T01:06:01;15.68;97.14
69938;DHT22;57248;47.320;15.998;2023-07-22T01:08:33;15.58;96.92
69938;DHT22;57248;47.320;15.998;2023-07-22T01:11:05;15.59;97.03
69938;DHT22;57248;47.320;15.998;2023-07-22T01:13:37;15.49;97.52
69938;DHT22;57248;47.320;15.998;2023-07-22T01:16:11;15.39;97.21
69938;DHT22;57248;47.320;15.998;2023-07-22T01:18:42;15.42;97.21
69938;DHT22;57248;47.320;15.998;2023-07-22T01:21:15;15.38;97.03
69938;DHT22;57248;47.320;15.998;2023-07-22T01:23:47;15.26;96.78
69938;DHT22;57248;47.320;15.998;2023-07-22T01:26:20;15.27;97.59
69938;DHT22;57248;47.320;15.998;2023-07-22T01:29:02;15.27;97.57
69938;DHT22;57248;47.320;15.998;2023-07-22T01:31:34;15.24;97.05
69938;DHT22;57248;47.320;15.998;2023-07-22T01:34:07;15.21;97.40
69938;DHT22;57248;47.320;15.998;2023-07-22T01:36:39;15.04;98.71
69938;DHT22;57248;47.320;15.998;2023-07-22T01:39:11;15.17;98.31
69938;DHT22;57248;47.320;15.998;2023-07-22T01:41:45;15.10;98.52
69938;DHT22;57248;47.320;15.998;2023-07-22T01:44:17;15.07;97.93
69938;DHT22;57248;47.320;15.998;2023-07-22T01:46:49;15.18;97.79
69938;DHT22;57248;47.320;15.998;2023-07-22T01:49:21;15.16;97.47
69938;DHT22;57248;47.320;15.998;2023-07-22T01:51:49;15.06;98.12
69938;DHT22;57248;47.320;15.998;2023-07-22T01:54:21;15.00;97.95
69938;DHT22;57248;47.320;15.998;2023-07-22T01:57:00;15.04;97.41
69938;DHT22;57248;47.320;15.998;2023-07-22T01:59:32;15.06;97.39
69938;DHT22;57248;47.320;15.998;2023-07-22T02:02:05;14.96;97.41
69938;DHT22;57248;47.320;15.998;2023-07-22T02:04:36;14.98;97.19
69938;DHT22;57248;47.320;15.998;2023-07-22T02:07:08;14.84;97.63
69938;DHT22;57248;47.320;15.998;2023-07-22T02:09:40;14.86;97.83
69938;DHT22;57248;47.320;15.998;2023-07-22T02:12:13;14.91;98.03
69938;DHT22;57248;47.320;15.998;2023-07-22T02:14:44;14.96;97.57
69938;DHT22;57248;47.320;15.998;2023-07-22T02:17:16;14.86;97.62
69938;DHT22;57248;47.320;15.998;2023-07-22T02:19:42;14.83;97.64
69938;DHT22;57248;47.320;15.998;2023-07-22T02:22:15;14.81;97.62
69938;DHT22;57248;47.320;15.998;2023-07-22T02:24:48;14.79;97.85
69938;DHT22;57248;47.320;15.998;2023-07-22T02:27:19;14.87;97.73
69938;DHT22;57248;47.320;15.998;2023-07-22T02:29:51;14.81;98.07
69938;DHT22;57248;47.320;15.998;2023-07-22T02:32:23;14.80;98.01
69938;DHT22;57248;47.320;15.998;2023-07-22T02:34:55;14.81;97.69
69938;DHT22;57248;47.320;15.998;2023-07-22T02:37:27;14.83;97.92
69938;DHT22;57248;47.320;15.998;2023-07-22T02:39:59;14.84;97.85
69938;DHT22;57248;47.320;15.998;2023-07-22T02:42:31;14.86;97.76
69938;DHT22;57248;47.320;15.998;2023-07-22T02:45:04;14.87;97.48
69938;DHT22;57248;47.320;15.998;2023-07-22T02:47:32;14.80;97.20
69938;DHT22;57248;47.320;15.998;2023-07-22T02:50:06;14.86;97.59
69938;DHT22;57248;47.320;15.998;2023-07-22T02:52:45;14.86;97.92
69938;DHT22;57248;47.320;15.998;2023-07-22T02:55:18;14.80;97.81
69938;DHT22;57248;47.320;15.998;2023-07-22T02:57:57;14.79;98.33
69938;DHT22;57248;47.320;15.998;2023-07-22T03:00:29;14.75;98.41
69938;DHT22;57248;47.320;15.998;2023-07-22T03:02:56;14.73;98.89
69938;DHT22;57248;47.320;15.998;2023-07-22T03:05:34;14.75;98.70
69938;DHT22;57248;47.320;15.998;2023-07-22T03:08:06;14.75;98.89
69938;DHT22;57248;47.320;15.998;2023-07-22T03:10:32;14.86;98.68
69938;DHT22;57248;47.320;15.998;2023-07-22T03:13:04;15.00;98.28
69938;DHT22;57248;47.320;15.998;2023-07-22T03:15:36;15.00;98.05
69938;DHT22;57248;47.320;15.998;2023-07-22T03:18:08;14.97;97.85
69938;DHT22;57248;47.320;15.998;2023-07-22T03:20:41;14.96;97.97
69938;DHT22;57248;47.320;15.998;2023-07-22T03:23:14;15.04;97.94
69938;DHT22;57248;47.320;15.998;2023-07-22T03:25:46;15.08;97.80
69938;DHT22;57248;47.320;15.998;2023-07-22T03:28:18;15.10;97.80
69938;DHT22;57248;47.320;15.998;2023-07-22T03:30:50;15.14;97.65
69938;DHT22;57248;47.320;15.998;2023-07-22T03:33:22;15.20;97.66
69938;DHT22;57248;47.320;15.998;2023-07-22T03:35:54;15.14;97.42
69938;DHT22;57248;47.320;15.998;2023-07-22T03:38:26;15.17;97.32
69938;DHT22;57248;47.320;15.998;2023-07-22T03:40:58;15.21;97.69
69938;DHT22;57248;47.320;15.998;2023-07-22T03:43:24;15.23;97.42
69938;DHT22;57248;47.320;15.998;2023-07-22T03:45:55;15.24;97.52
69938;DHT22;57248;47.320;15.998;2023-07-22T03:48:27;15.28;97.56
69938;DHT22;57248;47.320;15.998;2023-07-22T03:51:00;15.32;97.38
69938;DHT22;57248;47.320;15.998;2023-07-22T03:53:38;15.35;97.86
69938;DHT22;57248;47.320;15.998;2023-07-22T03:56:10;15.34;97.98
69938;DHT22;57248;47.320;15.998;2023-07-22T03:58:50;15.38;97.47
69938;DHT22;57248;47.320;15.998;2023-07-22T04:01:22;15.39;97.34
69938;DHT22;57248;47.320;15.998;2023-07-22T04:03:54;15.44;96.72
69938;DHT22;57248;47.320;15.998;2023-07-22T04:06:27;15.49;96.88
69938;DHT22;57248;47.320;15.998;2023-07-22T04:08:59;15.62;96.37
69938;DHT22;57248;47.320;15.998;2023-07-22T04:11:33;15.70;96.35
69938;DHT22;57248;47.320;15.998;2023-07-22T04:13:59;15.86;95.89
69938;DHT22;57248;47.320;15.998;2023-07-22T04:16:30;15.96;96.12
69938;DHT22;57248;47.320;15.998;2023-07-22T04:19:02;16.12;95.88
69938;DHT22;57248;47.320;15.998;2023-07-22T04:21:34;16.21;95.67
69938;DHT22;57248;47.320;15.998;2023-07-22T04:24:07;16.30;95.44
69938;DHT22;57248;47.320;15.998;2023-07-22T04:26:43;16.37;95.16
69938;DHT22;57248;47.320;15.998;2023-07-22T04:29:14;16.44;95.02
69938;DHT22;57248;47.320;15.998;2023-07-22T04:31:46;16.48;95.10
69938;DHT22;57248;47.320;15.998;2023-07-22T04:34:18;16.61;94.64
69938;DHT22;57248;47.320;15.998;2023-07-22T04:36:52;16.58;95.15
69938;DHT22;57248;47.320;15.998;2023-07-22T04:39:23;16.72;94.56
69938;DHT22;57248;47.320;15.998;2023-07-22T04:41:55;16.86;94.01
69938;DHT22;57248;47.320;15.998;2023-07-22T04:44:21;16.89;93.64
69938;DHT22;57248;47.320;15.998;2023-07-22T04:46:53;16.99;93.01
69938;DHT22;57248;47.320;15.998;2023-07-22T04:49:26;17.14;92.98
69938;DHT22;57248;47.320;15.998;2023-07-22T04:51:58;17.25;93.82
69938;DHT22;57248;47.320;15.998;2023-07-22T04:54:37;17.51;92.72
69938;DHT22;57248;47.320;15.998;2023-07-22T04:57:09;17.69;92.81
69938;DHT22;57248;47.320;15.998;2023-07-22T04:59:51;17.77;91.55
69938;DHT22;57248;47.320;15.998;2023-07-22T05:02:23;18.01;90.61
69938;DHT22;57248;47.320;15.998;2023-07-22T05:04:57;18.29;91.13
69938;DHT22;57248;47.320;15.998;2023-07-22T05:07:28;18.56;90.86
69938;DHT22;57248;47.320;15.998;2023-07-22T05:10:02;18.77;88.74
69938;DHT22;57248;47.320;15.998;2023-07-22T05:12:28;18.97;88.58
69938;DHT22;57248;47.320;15.998;2023-07-22T05:14:59;19.55;86.15
69938;DHT22;57248;47.320;15.998;2023-07-22T05:17:33;19.92;85.86
69938;DHT22;57248;47.320;15.998;2023-07-22T05:20:05;20.09;85.97
69938;DHT22;57248;47.320;15.998;2023-07-22T05:22:38;19.99;85.16
69938;DHT22;57248;47.320;15.998;2023-07-22T05:25:12;20.02;84.53
69938;DHT22;57248;47.320;15.998;2023-07-22T05:27:43;20.43;85.32
69938;DHT22;57248;47.320;15.998;2023-07-22T05:30:15;20.57;83.66
69938;DHT22;57248;47.320;15.998;2023-07-22T05:32:48;20.61;81.13
69938;DHT22;57248;47.320;15.998;2023-07-22T05:35:25;21.18;81.73
69938;DHT22;57248;47.320;15.998;2023-07-22T05:37:56;21.33;81.12
69938;DHT22;57248;47.320;15.998;2023-07-22T05:40:28;21.74;78.89
69938;DHT22;57248;47.320;15.998;2023-07-22T05:43:00;21.56;82.51
69938;DHT22;57248;47.320;15.998;2023-07-22T05:45:32;22.18;79.25
69938;DHT22;57248;47.320;15.998;2023-07-22T05:48:05;22.42;77.11
69938;DHT22;57248;47.320;15.998;2023-07-22T05:50:38;22.42;76.65
69938;DHT22;57248;47.320;15.998;2023-07-22T05:53:16;22.20;77.28
69938;DHT22;57248;47.320;15.998;2023-07-22T05:55:55;22.21;77.66
69938;DHT22;57248;47.320;15.998;2023-07-22T05:58:28;22.05;78.58
69938;DHT22;57248;47.320;15.998;2023-07-22T06:01:00;22.18;76.70
69938;DHT22;57248;47.320;15.998;2023-07-22T06:03:32;22.44;77.77
69938;DHT22;57248;47.320;15.998;2023-07-22T06:06:05;22.37;78.06
69938;DHT22;57248;47.320;15.998;2023-07-22T06:08:37;22.38;77.42
69938;DHT22;57248;47.320;15.998;2023-07-22T06:11:08;22.47;78.72
69938;DHT22;57248;47.320;15.998;2023-07-22T06:13:41;22.52;79.81
69938;DHT22;57248;47.320;15.998;2023-07-22T06:16:13;22.97;75.85
69938;DHT22;57248;47.320;15.998;2023-07-22T06:18:44;23.74;75.11
69938;DHT22;57248;47.320;15.998;2023-07-22T06:21:17;24.77;73.34
69938;DHT22;57248;47.320;15.998;2023-07-22T06:23:50;24.59;71.80
69938;DHT22;57248;47.320;15.998;2023-07-22T06:26:23;24.77;72.65
69938;DHT22;57248;47.320;15.998;2023-07-22T06:28:54;24.81;71.95
69938;DHT22;57248;47.320;15.998;2023-07-22T06:31:28;25.19;69.43
69938;DHT22;57248;47.320;15.998;2023-07-22T06:34:03;24.98;68.35
69938;DHT22;57248;47.320;15.998;2023-07-22T06:36:34;23.43;73.65
69938;DHT22;57248;47.320;15.998;2023-07-22T06:39:08;23.26;75.36
69938;DHT22;57248;47.320;15.998;2023-07-22T06:41:40;23.46;74.57
69938;DHT22;57248;47.320;15.998;2023-07-22T06:44:13;23.98;72.52
69938;DHT22;57248;47.320;15.998;2023-07-22T06:46:45;24.20;72.37
69938;DHT22;57248;47.320;15.998;2023-07-22T06:49:16;23.58;73.10
69938;DHT22;57248;47.320;15.998;2023-07-22T06:51:49;24.27;70.79
69938;DHT22;57248;47.320;15.998;2023-07-22T06:54:20;24.06;70.89
69938;DHT22;57248;47.320;15.998;2023-07-22T06:56:54;24.61;71.00
69938;DHT22;57248;47.320;15.998;2023-07-22T06:59:26;24.49;70.47
69938;DHT22;57248;47.320;15.998;2023-07-22T07:01:58;23.78;72.07
69938;DHT22;57248;47.320;15.998;2023-07-22T07:04:31;23.67;72.08
69938;DHT22;57248;47.320;15.998;2023-07-22T07:07:03;24.25;71.35
69938;DHT22;57248;47.320;15.998;2023-07-22T07:09:35;24.97;71.06
69938;DHT22;57248;47.320;15.998;2023-07-22T07:12:07;24.10;70.12
69938;DHT22;57248;47.320;15.998;2023-07-22T07:14:39;23.57;72.37
69938;DHT22;57248;47.320;15.998;2023-07-22T07:17:11;24.60;70.59
69938;DHT22;57248;47.320;15.998;2023-07-22T07:19:36;25.29;68.40
69938;DHT22;57248;47.320;15.998;2023-07-22T07:22:08;25.72;68.25
69938;DHT22;57248;47.320;15.998;2023-07-22T07:24:41;25.59;67.92
69938;DHT22;57248;47.320;15.998;2023-07-22T07:27:14;25.39;68.36
69938;DHT22;57248;47.320;15.998;2023-07-22T07:29:45;24.26;69.54
69938;DHT22;57248;47.320;15.998;2023-07-22T07:32:19;24.55;67.99
69938;DHT22;57248;47.320;15.998;2023-07-22T07:34:51;24.55;68.91
69938;DHT22;57248;47.320;15.998;2023-07-22T07:37:24;24.98;68.69
69938;DHT22;57248;47.320;15.998;2023-07-22T07:39:56;25.08;66.67
69938;DHT22;57248;47.320;15.998;2023-07-22T07:42:31;25.43;66.82
69938;DHT22;57248;47.320;15.998;2023-07-22T07:45:04;25.70;67.46
69938;DHT22;57248;47.320;15.998;2023-07-22T07:47:37;26.00;67.68
69938;DHT22;57248;47.320;15.998;2023-07-22T07:50:09;25.17;68.71
69938;DHT22;57248;47.320;15.998;2023-07-22T07:52:41;25.45;69.08
69938;DHT22;57248;47.320;15.998;2023-07-22T07:55:19;25.10;69.83
69938;DHT22;57248;47.320;15.998;2023-07-22T07:57:52;25.96;68.06
69938;DHT22;57248;47.320;15.998;2023-07-22T08:00:24;25.36;67.88
69938;DHT22;57248;47.320;15.998;2023-07-22T08:02:56;25.79;67.08
69938;DHT22;57248;47.320;15.998;2023-07-22T08:05:28;27.60;64.81
69938;DHT22;57248;47.320;15.998;2023-07-22T08:07:54;26.61;62.58
69938;DHT22;57248;47.320;15.998;2023-07-22T08:10:27;26.47;61.73
69938;DHT22;57248;47.320;15.998;2023-07-22T08:12:59;26.81;60.30
69938;DHT22;57248;47.320;15.998;2023-07-22T08:15:31;26.85;59.73
69938;DHT22;57248;47.320;15.998;2023-07-22T08:18:03;26.30;60.71
69938;DHT22;57248;47.320;15.998;2023-07-22T08:20:36;28.28;58.01
69938;DHT22;57248;47.320;15.998;2023-07-22T08:23:08;31.08;52.22
69938;DHT22;57248;47.320;15.998;2023-07-22T08:25:40;29.88;53.82
69938;DHT22;57248;47.320;15.998;2023-07-22T08:28:12;29.22;53.30
69938;DHT22;57248;47.320;15.998;2023-07-22T08:30:44;25.97;59.31
69938;DHT22;57248;47.320;15.998;2023-07-22T08:33:17;26.78;59.21
69938;DHT22;57248;47.320;15.998;2023-07-22T08:35:50;26.95;57.10
69938;DHT22;57248;47.320;15.998;2023-07-22T08:38:23;26.98;59.72
69938;DHT22;57248;47.320;15.998;2023-07-22T08:40:50;25.26;64.10
69938;DHT22;57248;47.320;15.998;2023-07-22T08:43:23;25.28;63.36
69938;DHT22;57248;47.320;15.998;2023-07-22T08:45:55;25.90;62.01
69938;DHT22;57248;47.320;15.998;2023-07-22T08:48:31;25.49;63.63
69938;DHT22;57248;47.320;15.998;2023-07-22T08:51:06;24.43;66.37
69938;DHT22;57248;47.320;15.998;2023-07-22T08:53:40;24.56;67.88
69938;DHT22;57248;47.320;15.998;2023-07-22T08:56:12;24.64;67.88
69938;DHT22;57248;47.320;15.998;2023-07-22T08:58:55;24.33;66.97
69938;DHT22;57248;47.320;15.998;2023-07-22T09:01:27;25.15;65.36
69938;DHT22;57248;47.320;15.998;2023-07-22T09:04:00;26.59;62.37
69938;DHT22;57248;47.320;15.998;2023-07-22T09:06:33;26.07;63.84
69938;DHT22;57248;47.320;15.998;2023-07-22T09:09:07;25.49;62.81
69938;DHT22;57248;47.320;15.998;2023-07-22T09:11:40;25.92;62.81
69938;DHT22;57248;47.320;15.998;2023-07-22T09:14:12;26.30;60.87
69938;DHT22;57248;47.320;15.998;2023-07-22T09:16:45;28.23;57.29
69938;DHT22;57248;47.320;15.998;2023-07-22T09:19:18;27.27;58.10
69938;DHT22;57248;47.320;15.998;2023-07-22T09:21:50;29.12;55.50
69938;DHT22;57248;47.320;15.998;2023-07-22T09:24:26;28.33;54.56
69938;DHT22;57248;47.320;15.998;2023-07-22T09:27:00;30.41;51.43
69938;DHT22;57248;47.320;15.998;2023-07-22T09:29:37;28.59;53.61
69938;DHT22;57248;47.320;15.998;2023-07-22T09:32:10;28.97;52.28
69938;DHT22;57248;47.320;15.998;2023-07-22T09:34:54;28.69;51.15
69938;DHT22;57248;47.320;15.998;2023-07-22T09:37:37;27.87;53.52
69938;DHT22;57248;47.320;15.998;2023-07-22T09:40:14;27.63;53.92
69938;DHT22;57248;47.320;15.998;2023-07-22T09:42:50;28.39;52.88
69938;DHT22;57248;47.320;15.998;2023-07-22T09:45:23;27.03;53.76
69938;DHT22;57248;47.320;15.998;2023-07-22T09:47:56;27.54;53.01
69938;DHT22;57248;47.320;15.998;2023-07-22T09:50:29;27.82;53.32
69938;DHT22;57248;47.320;15.998;2023-07-22T09:52:57;27.71;55.04
69938;DHT22;57248;47.320;15.998;2023-07-22T09:55:42;28.21;52.01
69938;DHT22;57248;47.320;15.998;2023-07-22T09:58:14;28.26;52.00
69938;DHT22;57248;47.320;15.998;2023-07-22T10:00:47;29.21;50.64
69938;DHT22;57248;47.320;15.998;2023-07-22T10:03:20;30.54;46.42
69938;DHT22;57248;47.320;15.998;2023-07-22T10:05:58;31.05;47.57
69938;DHT22;57248;47.320;15.998;2023-07-22T10:08:34;31.18;47.76
69938;DHT22;57248;47.320;15.998;2023-07-22T10:11:08;30.48;47.97
69938;DHT22;57248;47.320;15.998;2023-07-22T10:13:42;32.51;45.61
69938;DHT22;57248;47.320;15.998;2023-07-22T10:16:15;30.57;49.61
69938;DHT22;57248;47.320;15.998;2023-07-22T10:18:42;29.78;49.22
69938;DHT22;57248;47.320;15.998;2023-07-22T10:21:17;31.49;47.63
69938;DHT22;57248;47.320;15.998;2023-07-22T10:23:49;31.02;47.69
69938;DHT22;57248;47.320;15.998;2023-07-22T10:26:22;30.23;48.04
69938;DHT22;57248;47.320;15.998;2023-07-22T10:28:47;29.79;48.37
69938;DHT22;57248;47.320;15.998;2023-07-22T10:31:19;30.05;49.59
69938;DHT22;57248;47.320;15.998;2023-07-22T10:33:51;31.25;48.62
69938;DHT22;57248;47.320;15.998;2023-07-22T10:36:29;33.75;44.33
69938;DHT22;57248;47.320;15.998;2023-07-22T10:39:01;33.94;42.21
69938;DHT22;57248;47.320;15.998;2023-07-22T10:41:38;34.43;41.17
69938;DHT22;57248;47.320;15.998;2023-07-22T10:44:11;35.18;41.23
69938;DHT22;57248;47.320;15.998;2023-07-22T10:46:57;34.99;41.74
69938;DHT22;57248;47.320;15.998;2023-07-22T10:49:44;36.00;39.60
69938;DHT22;57248;47.320;15.998;2023-07-22T10:52:42;36.68;39.71
69938;DHT22;57248;47.320;15.998;2023-07-22T10:55:17;37.76;36.17
69938;DHT22;57248;47.320;15.998;2023-07-22T10:57:54;37.46;36.05
69938;DHT22;57248;47.320;15.998;2023-07-22T11:00:31;35.47;39.14
69938;DHT22;57248;47.320;15.998;2023-07-22T11:03:13;34.32;41.94
69938;DHT22;57248;47.320;15.998;2023-07-22T11:05:53;32.95;42.04
69938;DHT22;57248;47.320;15.998;2023-07-22T11:08:39;34.23;40.82
69938;DHT22;57248;47.320;15.998;2023-07-22T11:11:12;34.74;39.58
69938;DHT22;57248;47.320;15.998;2023-07-22T11:13:44;32.31;44.62
69938;DHT22;57248;47.320;15.998;2023-07-22T11:16:16;30.26;47.24
69938;DHT22;57248;47.320;15.998;2023-07-22T11:18:50;31.22;46.47
69938;DHT22;57248;47.320;15.998;2023-07-22T11:21:22;32.34;45.22
69938;DHT22;57248;47.320;15.998;2023-07-22T11:23:54;31.91;46.09
69938;DHT22;57248;47.320;15.998;2023-07-22T11:26:26;31.33;45.93
69938;DHT22;57248;47.320;15.998;2023-07-22T11:28:59;30.51;47.46
69938;DHT22;57248;47.320;15.998;2023-07-22T11:31:36;31.51;46.17
69938;DHT22;57248;47.320;15.998;2023-07-22T11:34:28;30.02;49.14
69938;DHT22;57248;47.320;15.998;2023-07-22T11:37:00;31.26;46.92
69938;DHT22;57248;47.320;15.998;2023-07-22T11:39:32;33.03;43.29
69938;DHT22;57248;47.320;15.998;2023-07-22T11:42:06;33.10;43.53
69938;DHT22;57248;47.320;15.998;2023-07-22T11:44:39;32.66;44.31
69938;DHT22;57248;47.320;15.998;2023-07-22T11:47:12;34.18;40.86
69938;DHT22;57248;47.320;15.998;2023-07-22T11:49:47;33.68;41.94
69938;DHT22;57248;47.320;15.998;2023-07-22T11:52:20;34.57;40.93
69938;DHT22;57248;47.320;15.998;2023-07-22T11:55:02;33.98;41.65
69938;DHT22;57248;47.320;15.998;2023-07-22T11:57:42;32.27;43.79
69938;DHT22;57248;47.320;15.998;2023-07-22T12:00:14;30.89;45.26
69938;DHT22;57248;47.320;15.998;2023-07-22T12:02:41;32.42;43.17
69938;DHT22;57248;47.320;15.998;2023-07-22T12:05:21;33.67;41.65
69938;DHT22;57248;47.320;15.998;2023-07-22T12:07:53;31.14;44.99
69938;DHT22;57248;47.320;15.998;2023-07-22T12:10:25;33.06;42.63
69938;DHT22;57248;47.320;15.998;2023-07-22T12:13:00;33.82;40.94
69938;DHT22;57248;47.320;15.998;2023-07-22T12:15:34;33.34;40.63
69938;DHT22;57248;47.320;15.998;2023-07-22T12:18:07;36.15;37.20
69938;DHT22;57248;47.320;15.998;2023-07-22T12:20:40;34.59;39.67
69938;DHT22;57248;47.320;15.998;2023-07-22T12:23:15;33.39;41.06
69938;DHT22;57248;47.320;15.998;2023-07-22T12:25:47;30.21;44.83
69938;DHT22;57248;47.320;15.998;2023-07-22T12:28:19;31.86;42.89
69938;DHT22;57248;47.320;15.998;2023-07-22T12:30:52;33.23;40.28
69938;DHT22;57248;47.320;15.998;2023-07-22T12:33:18;30.72;42.13
69938;DHT22;57248;47.320;15.998;2023-07-22T12:35:50;30.08;42.52
69938;DHT22;57248;47.320;15.998;2023-07-22T12:38:23;30.54;41.53
69938;DHT22;57248;47.320;15.998;2023-07-22T12:40:55;29.76;42.70
69938;DHT22;57248;47.320;15.998;2023-07-22T12:43:27;29.15;44.73
69938;DHT22;57248;47.320;15.998;2023-07-22T12:45:59;30.36;42.30
69938;DHT22;57248;47.320;15.998;2023-07-22T12:48:31;30.14;43.10
69938;DHT22;57248;47.320;15.998;2023-07-22T12:51:03;32.03;40.89
69938;DHT22;57248;47.320;15.998;2023-07-22T12:53:35;32.21;39.25
69938;DHT22;57248;47.320;15.998;2023-07-22T12:56:14;30.92;40.75
69938;DHT22;57248;47.320;15.998;2023-07-22T12:58:46;33.90;38.18
69938;DHT22;57248;47.320;15.998;2023-07-22T13:01:25;34.48;37.49
69938;DHT22;57248;47.320;15.998;2023-07-22T13:03:57;36.64;36.04
69938;DHT22;57248;47.320;15.998;2023-07-22T13:06:30;33.19;41.00
69938;DHT22;57248;47.320;15.998;2023-07-22T13:08:56;30.74;45.79
69938;DHT22;57248;47.320;15.998;2023-07-22T13:11:28;30.19;46.62
69938;DHT22;57248;47.320;15.998;2023-07-22T13:14:00;30.05;48.38
69938;DHT22;57248;47.320;15.998;2023-07-22T13:16:26;31.08;46.76
69938;DHT22;57248;47.320;15.998;2023-07-22T13:18:58;30.75;45.66
69938;DHT22;57248;47.320;15.998;2023-07-22T13:21:33;31.76;45.61
69938;DHT22;57248;47.320;15.998;2023-07-22T13:23:58;31.93;44.83
69938;DHT22;57248;47.320;15.998;2023-07-22T13:26:31;32.58;43.33
69938;DHT22;57248;47.320;15.998;2023-07-22T13:29:03;31.42;44.94
69938;DHT22;57248;47.320;15.998;2023-07-22T13:31:35;33.64;40.79
69938;DHT22;57248;47.320;15.998;2023-07-22T13:34:00;31.69;43.51
69938;DHT22;57248;47.320;15.998;2023-07-22T13:36:33;30.94;44.38
69938;DHT22;57248;47.320;15.998;2023-07-22T13:39:05;33.91;40.69
69938;DHT22;57248;47.320;15.998;2023-07-22T13:41:38;35.65;39.37
69938;DHT22;57248;47.320;15.998;2023-07-22T13:44:04;34.32;39.05
69938;DHT22;57248;47.320;15.998;2023-07-22T13:46:37;34.12;38.52
69938;DHT22;57248;47.320;15.998;2023-07-22T13:49:10;33.55;39.61
69938;DHT22;57248;47.320;15.998;2023-07-22T13:51:43;34.09;39.41
69938;DHT22;57248;47.320;15.998;2023-07-22T13:54:15;35.64;37.76
69938;DHT22;57248;47.320;15.998;2023-07-22T13:56:55;35.79;37.46
69938;DHT22;57248;47.320;15.998;2023-07-22T13:59:28;33.34;40.23
69938;DHT22;57248;47.320;15.998;2023-07-22T14:02:00;32.68;42.73
69938;DHT22;57248;47.320;15.998;2023-07-22T14:04:32;34.13;40.67
69938;DHT22;57248;47.320;15.998;2023-07-22T14:06:58;32.18;41.60
69938;DHT22;57248;47.320;15.998;2023-07-22T14:09:31;32.10;42.82
69938;DHT22;57248;47.320;15.998;2023-07-22T14:12:03;33.24;40.94
69938;DHT22;57248;47.320;15.998;2023-07-22T14:14:35;32.90;42.48
69938;DHT22;57248;47.320;15.998;2023-07-22T14:17:00;32.55;44.39
69938;DHT22;57248;47.320;15.998;2023-07-22T14:19:32;32.05;47.02
69938;DHT22;57248;47.320;15.998;2023-07-22T14:22:04;31.73;47.04
69938;DHT22;57248;47.320;15.998;2023-07-22T14:24:36;30.31;48.47
69938;DHT22;57248;47.320;15.998;2023-07-22T14:27:09;30.39;48.64
69938;DHT22;57248;47.320;15.998;2023-07-22T14:29:42;29.69;50.54
69938;DHT22;57248;47.320;15.998;2023-07-22T14:32:14;29.27;50.79
69938;DHT22;57248;47.320;15.998;2023-07-22T14:34:48;29.10;52.21
69938;DHT22;57248;47.320;15.998;2023-07-22T14:37:21;29.39;52.93
69938;DHT22;57248;47.320;15.998;2023-07-22T14:39:53;29.31;52.68
69938;DHT22;57248;47.320;15.998;2023-07-22T14:42:25;28.64;53.39
69938;DHT22;57248;47.320;15.998;2023-07-22T14:44:50;28.55;53.59
69938;DHT22;57248;47.320;15.998;2023-07-22T14:47:22;28.53;53.26
69938;DHT22;57248;47.320;15.998;2023-07-22T14:49:47;28.22;53.14
69938;DHT22;57248;47.320;15.998;2023-07-22T14:52:19;27.40;54.65
69938;DHT22;57248;47.320;15.998;2023-07-22T14:54:51;27.12;55.75
69938;DHT22;57248;47.320;15.998;2023-07-22T14:57:40;27.13;56.37
69938;DHT22;57248;47.320;15.998;2023-07-22T15:00:12;26.64;56.82
69938;DHT22;57248;47.320;15.998;2023-07-22T15:02:45;26.47;57.93
69938;DHT22;57248;47.320;15.998;2023-07-22T15:05:10;26.65;57.75
69938;DHT22;57248;47.320;15.998;2023-07-22T15:07:44;26.43;57.42
69938;DHT22;57248;47.320;15.998;2023-07-22T15:10:10;26.18;58.21
69938;DHT22;57248;47.320;15.998;2023-07-22T15:12:43;25.79;59.95
69938;DHT22;57248;47.320;15.998;2023-07-22T15:15:16;25.73;59.51
69938;DHT22;57248;47.320;15.998;2023-07-22T15:17:50;25.45;60.07
69938;DHT22;57248;47.320;15.998;2023-07-22T15:20:22;25.34;60.19
69938;DHT22;57248;47.320;15.998;2023-07-22T15:22:54;24.87;61.62
69938;DHT22;57248;47.320;15.998;2023-07-22T15:25:26;24.99;61.25
69938;DHT22;57248;47.320;15.998;2023-07-22T15:27:51;24.77;62.77
69938;DHT22;57248;47.320;15.998;2023-07-22T15:30:23;24.59;63.90
69938;DHT22;57248;47.320;15.998;2023-07-22T15:32:55;23.95;65.35
69938;DHT22;57248;47.320;15.998;2023-07-22T15:35:27;24.18;65.42
69938;DHT22;57248;47.320;15.998;2023-07-22T15:38:00;24.39;65.37
69938;DHT22;57248;47.320;15.998;2023-07-22T15:40:35;24.60;62.29
69938;DHT22;57248;47.320;15.998;2023-07-22T15:43:07;24.04;64.18
69938;DHT22;57248;47.320;15.998;2023-07-22T15:45:40;23.84;64.23
69938;DHT22;57248;47.320;15.998;2023-07-22T15:48:12;23.36;66.06